21. Wachauer Radtage

Date: 14.07.2019

Results - Raiffeisen Power Radmarathon 92 km

Pos No Cert Name Year of Birth Time Diff Cat Cat Pos Cat Diff ⚤ Pos ⚤ Diff Club City Nation Pace
1 2561 SZALAY Daniel SZALAY D. 1987 2:20:35.4 AKH 1 M 1 HILL Racingteam Wiener Neustadt 39.3 km/h +
2 2645 TIEFENBÖCK Andreas TIEFENBÖCK A. 1986 2:22:24.7 +1:49.3 AKH 2 +1:49.3 M 2 +1:49.3 Team Kosmo Piloten powered by ... Senftenberg 38.8 km/h +
3 2018 BANDIK Tomas BANDIK T. 1981 2:22:25.1 +1:49.7 AKH 3 +1:49.7 M 3 +1:49.7 HR Racing Team České Budějo... České Budějovice 38.8 km/h +
4 2649 WEGSCHEIDER Philipp WEGSCHEIDER P. 1987 2:22:25.6 +1:50.2 AKH 4 +1:50.2 M 4 +1:50.2 TEAM WALDAFFE Karlstetten 38.8 km/h +
5 2640 ZISSER Bernhard ZISSER B. 1977 2:22:26.7 +1:51.3 H 40+ 1 M 5 +1:51.3 Wiener Sport-Club Breitenfurt 38.8 km/h +
6 2458 RUMPL Clemens RUMPL C. 1994 2:22:32.2 +1:56.8 AKH 5 +1:56.8 M 6 +1:56.8 rc Arbö steiner shopping purg... Randegg 38.7 km/h +
7 2124 FITZINGER Patrick FITZINGER P. 1995 2:23:02.1 +2:26.7 AKH 6 +2:26.7 M 7 +2:26.7 Waldenstein 38.6 km/h +
8 2464 SANJATH Philip SANJATH P. 1990 2:23:39.7 +3:04.3 AKH 7 +3:04.3 M 8 +3:04.3 Wien 38.4 km/h +
9 2646 KÖFALVI Michael KÖFALVI M. 1974 2:23:40.9 +3:05.5 H 40+ 2 +1:14.2 M 9 +3:05.5 Team Kosmo Piloten powered by ... Wien 38.4 km/h +
10 2642 STOCKLASSER Markus STOCKLASSER M. 1978 2:23:42.1 +3:06.7 H 40+ 3 +1:15.4 M 10 +3:06.7 Team Kosmo Piloten powered by ... Windigsteig 38.4 km/h +
11 2147 GRABMAYER Hermann GRABMAYER H. 1987 2:23:42.4 +3:07.0 AKH 8 +3:07.0 M 11 +3:07.0 ARBÖ Wienenergie Röhsler&Co Wien 38.4 km/h +
12 2212 HIRTL Markus HIRTL M. 1996 2:23:42.7 +3:07.3 AKH 9 +3:07.3 M 12 +3:07.3 tus caska feldbach Bad Gleichenberg 38.4 km/h +
13 2110 EßLETZBICHLER Manfred EßLETZBICHLER M. 1972 2:23:42.9 +3:07.5 H 40+ 4 +1:16.2 M 13 +3:07.5 WE SPORTS Racing Wien 38.4 km/h +
14 2032 BERGER Gerhard BERGER G. 1972 2:23:43.2 +3:07.8 H 40+ 5 +1:16.5 M 14 +3:07.8 Bernhard Kohl Racing Team Eggersdorf 38.4 km/h +
15 2758 WENINGER Franz WENINGER F. 1989 2:23:43.2 +3:07.8 AKH 10 +3:07.8 M 15 +3:07.8 FREE EAGLE Fun Racing Team Hollabrunn 38.4 km/h +
16 2274 KNITEL Philipp KNITEL P. 1992 2:23:43.5 +3:08.0 AKH 11 +3:08.0 M 16 +3:08.0 RC Weinviertel NORD Neusiedl an der Zaya 38.4 km/h +
16 2180 HAMEDIGNER Markus HAMEDIGNER M. 1992 2:23:43.5 +3:08.0 AKH 11 +3:08.0 M 16 +3:08.0 Team Alpha - Tischlerei Grömm... St. Roman 38.4 km/h +
18 2361 MAYER Andreas MAYER A. 1979 2:23:43.9 +3:08.5 H 40+ 6 +1:17.2 M 18 +3:08.5 Wien 38.4 km/h +
19 2509 SCHWARZINGER Klaus SCHWARZINGER K. 1978 2:23:44.6 +3:09.2 H 40+ 7 +1:17.9 M 19 +3:09.2 Wiener Sport-Club Wien 38.4 km/h +
20 2643 ROST Mikolas ROST M. 1983 2:23:45.7 +3:10.3 AKH 13 +3:10.3 M 20 +3:10.3 RC Raiba Kosmopiloten Zwettl Wien 38.4 km/h +
21 2462 SAMETINGER Benedikt SAMETINGER B. 1999 2:23:48.1 +3:12.7 AKH 14 +3:12.7 M 21 +3:12.7 RSC Wolfsegg Manning 38.4 km/h +
22 2712 FISCHER Martin FISCHER M. 1974 2:24:21.9 +3:46.5 H 40+ 8 +1:55.2 M 22 +3:46.5 ZKW St. Leonhard 38.2 km/h +
23 2396 OBALA Rene OBALA R. 1982 2:24:22.1 +3:46.7 AKH 15 +3:46.7 M 23 +3:46.7 Stillfried 38.2 km/h +
24 2718 SINNABELL Markus SINNABELL M. 1970 2:24:25.4 +3:50.0 H 40+ 9 +1:58.6 M 24 +3:50.0 RSC Thermenregion Markt Piesting 38.2 km/h +
25 2522 SIMONER Markus SIMONER M. 1975 2:24:25.4 +3:50.0 H 40+ 10 +1:58.7 M 25 +3:50.0 Cycle Team Tulln Tulln 38.2 km/h +
26 2275 KNÖDLSTORFER Florian KNÖDLSTORFER F. 1983 2:25:32.1 +4:56.7 AKH 16 +4:56.7 M 26 +4:56.7 HILL Racingteam Weiden am See 37.9 km/h +
27 2666 SCHIEß Roland SCHIEß R. 1974 2:25:32.4 +4:57.0 H 40+ 11 +3:05.6 M 27 +4:57.0 Mürzzuschlag 37.9 km/h +
28 2375 MÖRTL Manfred MÖRTL M. 1968 2:25:32.4 +4:57.0 H 50+ 1 M 28 +4:57.0 Cycle Team Tulln Tulln 37.9 km/h +
29 2701 GMAINER Matthias GMAINER M. 1992 2:25:33.7 +4:58.3 AKH 17 +4:58.3 M 29 +4:58.3 Engel-Racing-Team Haidershofen 37.9 km/h +
30 2199 HELMICH Sebastian HELMICH S. 1985 2:25:35.2 +4:59.8 AKH 18 +4:59.8 M 30 +4:59.8 SU Bikestore.cc -Team Langenzersdorf 37.9 km/h +
31 2113 FARKAS Balázs FARKAS B. 1980 2:25:51.2 +5:15.8 AKH 19 +5:15.8 M 31 +5:15.8 Geizhals.at VICC Racing Divisi... Wien 37.8 km/h +
32 2009 ARTINGER Helmut ARTINGER H. 1972 2:25:53.2 +5:17.8 H 40+ 12 +3:26.5 M 32 +5:17.8 Wien 37.8 km/h +
33 2408 PANZIRSCH Valentin PANZIRSCH V. 1991 2:25:53.4 +5:18.0 AKH 20 +5:18.0 M 33 +5:18.0 Geizhals.at VICC Racing Divisi... Wien 37.8 km/h +
34 2228 HÖLZL Wolfgang HÖLZL W. 1986 2:26:40.4 +6:05.0 AKH 21 +6:05.0 M 34 +6:05.0 Multigate Cycling Team Vösendorf 37.6 km/h +
35 2317 LANG Gottfried LANG G. 1967 2:26:41.4 +6:06.0 H 50+ 2 +1:09.0 M 35 +6:06.0 Radsport Team Hochhauser Laakirchen 37.6 km/h +
36 2469 SCHASCHING David SCHASCHING D. 2001 2:26:41.6 +6:06.2 AKH 22 +6:06.2 M 36 +6:06.2 Sankt Roman 37.6 km/h +
37 2528 SPECKL Gerhard SPECKL G. 1983 2:26:43.1 +6:07.7 AKH 23 +6:07.7 M 37 +6:07.7 HILL Racingteam Rohrau 37.6 km/h +
38 2188 HASLWANTER Simon HASLWANTER S. 1992 2:26:43.9 +6:08.5 AKH 24 +6:08.5 M 38 +6:08.5 Wien 37.6 km/h +
39 2697 ROSSI Rene ROSSI R. 1986 2:26:43.9 +6:08.5 AKH 25 +6:08.5 M 39 +6:08.5 SV VELO LOUNGE LINZ Hellmonsödt 37.6 km/h +
40 2364 MAYR Karl MAYR K. 1977 2:26:44.9 +6:09.5 H 40+ 13 +4:18.1 M 40 +6:09.5 Wien 37.6 km/h +
41 2650 LUSTIG Daniel LUSTIG D. 1991 2:27:22.4 +6:47.0 AKH 26 +6:47.0 M 41 +6:47.0 Weils gsund is! powered by GÖ... Fels am Wagram 37.5 km/h +
42 2413 PESZAT Lubos PESZAT L. 1978 2:28:07.4 +7:32.0 H 40+ 14 +5:40.6 M 42 +7:32.0 HR Racing Team České Budějo... Ceske Budejovice 37.3 km/h +
42 2694 JIRI Dofek JIRI D. 1976 2:28:07.4 +7:32.0 H 40+ 14 +5:40.6 M 42 +7:32.0 COS Brno Brno 37.3 km/h +
44 2699 VELAGIC Halid VELAGIC H. 1973 2:28:07.4 +7:32.0 H 40+ 16 +5:40.7 M 44 +7:32.0 CFK Rückenwind Sipbachzell 37.3 km/h +
45 2048 BRABEC Zdenek BRABEC Z. 1968 2:28:07.6 +7:32.2 H 50+ 3 +2:35.2 M 45 +7:32.2 WINNERS Novy Saldorf Znojmo 37.3 km/h +
46 2055 BRAUNSBERGER Gregor BRAUNSBERGER G. 1971 2:28:07.9 +7:32.5 H 40+ 17 +5:41.2 M 46 +7:32.5 RC Maroitalia Racing Team Brunn am Gebirge 37.3 km/h +
47 2420 PLOCHBERGER Rene PLOCHBERGER R. 1982 2:28:10.4 +7:35.0 AKH 27 +7:35.0 M 47 +7:35.0 Wiener Sport-Club Wien 37.3 km/h +
48 2580 TREFFER Michael TREFFER M. 1985 2:28:10.6 +7:35.2 AKH 28 +7:35.2 M 48 +7:35.2 Physio 1.0 Cycling Team Sellrain 37.3 km/h +
49 2733 PEMMER Matthias PEMMER M. 1981 2:28:11.1 +7:35.7 AKH 29 +7:35.7 M 49 +7:35.7 Rc Weiten Weiten 37.3 km/h +
50 2574 THALER Jürgen THALER J. 1968 2:28:11.4 +7:36.0 H 50+ 4 +2:39.0 M 50 +7:36.0 RC Raiba Kosmopiloten Zwettl Ehrendorf 37.2 km/h +
51 2603 WEBER Matthias WEBER M. 1988 2:29:07.9 +8:32.5 AKH 30 +8:32.5 M 51 +8:32.5 Multigate Cycling Team Wien 37.0 km/h +
52 2123 FISCHLER Paul FISCHLER P. 1970 2:29:37.9 +9:02.5 H 40+ 18 +7:11.2 M 52 +9:02.5 Moateler on Tour Volders 36.9 km/h +
53 2330 LESNIAK Rostislav LESNIAK R. 1973 2:29:38.4 +9:03.0 H 40+ 19 +7:11.7 M 53 +9:03.0 Masters Cycling Club Brno 36.9 km/h +
54 2019 BATOHA Christoph BATOHA C. 1981 2:29:38.9 +9:03.5 AKH 31 +9:03.5 M 54 +9:03.5 Toms Radhaus Laa an der Thaya 36.9 km/h +
55 2605 WEGSCHEIDER Guido WEGSCHEIDER G. 1979 2:29:39.2 +9:03.8 H 40+ 20 +7:12.5 M 55 +9:03.8 Wien 36.9 km/h +
56 2340 LOSCHNIGG Martin LOSCHNIGG M. 1971 2:29:40.4 +9:05.0 H 40+ 21 +7:13.6 M 56 +9:05.0 rc Arbö steiner shopping purg... Scheibbs 36.9 km/h +
57 3066 VORMITTAG Sibylle VORMITTAG S. 1981 2:31:42.1 +11:06.7 AKD 1 W 1 RSC Mering Mering 36.4 km/h +
58 2644 GRATZ Hannes GRATZ H. 1988 2:33:32.7 +12:57.3 AKH 32 +12:57.3 M 57 +12:57.3 Team Kosmo Piloten powered by ... Böheimkirchen 36.0 km/h +
59 2566 TAFERNER Franz TAFERNER F. 1971 2:33:44.1 +13:08.7 H 40+ 22 +11:17.4 M 58 +13:08.7 LTC Seewinkel Göttlesbrunn 35.9 km/h +
60 2102 EDER Michael EDER M. 1993 2:35:02.4 +14:27.0 AKH 33 +14:27.0 M 59 +14:27.0 HSV Melk Pöggstall 35.6 km/h +
61 2171 HABLE Jürgen HABLE J. 1990 2:35:02.9 +14:27.5 AKH 34 +14:27.5 M 60 +14:27.5 Göpfritz an der Wild 35.6 km/h +
62 2768 BALZUWEIT Marc BALZUWEIT M. 1992 2:36:33.2 +15:57.8 AKH 35 +15:57.8 M 61 +15:57.8 Wien 35.3 km/h +
63 2766 FIDLER Martin FIDLER M. 1990 2:37:23.0 +16:47.5 AKH 36 +16:47.5 M 62 +16:47.5 HR Racing Ceske Budejovice Hluboka Nad Vltavou 35.1 km/h +
64 2200 HELPAP Bernhard HELPAP B. 1992 2:37:23.2 +16:47.8 AKH 37 +16:47.8 M 63 +16:47.8 Roadbiker.at Wien 35.1 km/h +
65 2298 KRIVETZ Hannes KRIVETZ H. 1959 2:37:25.2 +16:49.8 H 60+ 1 M 64 +16:49.8 Union XC Club Mühldorf Ottenschlag 35.1 km/h +
66 2629 WÜRZ Martin WÜRZ M. 1993 2:37:25.4 +16:50.0 AKH 38 +16:50.0 M 65 +16:50.0 NÖVSV Maissau 35.1 km/h +
67 2513 SEIBERL Rudi SEIBERL R. 1971 2:37:25.7 +16:50.3 H 40+ 23 +14:59.0 M 66 +16:50.3 Nora Racing Team Wien 35.1 km/h +
68 2163 GRUBMÜLLER Andreas GRUBMÜLLER A. 1988 2:37:26.1 +16:50.7 AKH 39 +16:50.7 M 67 +16:50.7 RSC Krems Dürnrohr 35.1 km/h +
69 2545 STOCKLASSER Horst STOCKLASSER H. 1975 2:37:27.0 +16:51.5 H 40+ 24 +15:00.2 M 68 +16:51.5 LC TRI Sierndorf Höbersdorf 35.1 km/h +
70 2695 MÜHLBERGER Wolfgang MÜHLBERGER W. 1977 2:37:29.2 +16:53.8 H 40+ 25 +15:02.5 M 69 +16:53.8 St. Georgen 35.1 km/h +
71 2039 BERTHOLD Thomas BERTHOLD T. 1975 2:37:30.7 +16:55.3 H 40+ 26 +15:04.0 M 70 +16:55.3 Cycle Team Tulln Langenschönbichl 35.0 km/h +
72 2558 SURBÖCK Jürgen SURBÖCK J. 1975 2:37:31.0 +16:55.5 H 40+ 27 +15:04.2 M 71 +16:55.5 1. FC Union Stein Krems 35.0 km/h +
73 2715 RATHMAYR Markus RATHMAYR M. 1973 2:37:42.9 +17:07.5 H 40+ 28 +15:16.1 M 72 +17:07.5 Wien 35.0 km/h +
74 2269 KITZBERGER Richard KITZBERGER R. 1979 2:37:43.2 +17:07.8 H 40+ 29 +15:16.5 M 73 +17:07.8 Wiener Sport-Club Wien 35.0 km/h +
75 2190 HAUSER Martin HAUSER M. 1994 2:37:43.9 +17:08.5 AKH 40 +17:08.5 M 74 +17:08.5 Eugendorf 35.0 km/h +
76 2335 LINDNER Josef LINDNER J. 1965 2:37:44.4 +17:09.0 H 50+ 5 +12:12.0 M 75 +17:09.0 A-TEAM Seekirchen Seekirchen 35.0 km/h +
77 2653 RAUTNER Fritz RAUTNER F. 1972 2:37:44.7 +17:09.3 H 40+ 30 +15:18.0 M 76 +17:09.3 RSC Krems Langenlois 35.0 km/h +
78 2738 FERTL Bernhard FERTL B. 1979 2:38:46.1 +18:10.7 H 40+ 31 +16:19.4 M 77 +18:10.7 Rc Weiten Weiten 34.8 km/h +
79 2648 BEYERL Peter BEYERL P. 1983 2:39:12.0 +18:36.5 AKH 41 +18:36.5 M 78 +18:36.5 Weils gsund is! powered by GÖ... Paudorf 34.7 km/h +
80 2401 OSTERBAUER Stefan OSTERBAUER S. 1993 2:39:12.7 +18:37.3 AKH 42 +18:37.3 M 79 +18:37.3 RC Friedberg Pinggau Friedberg 34.7 km/h +
81 2711 GÄRTNER Mario GÄRTNER M. 1969 2:39:13.2 +18:37.8 H 50+ 6 +13:40.8 M 80 +18:37.8 CFK Rückenwind Bad Schallerbach 34.7 km/h +
82 2134 FUGER Manfred FUGER M. 1979 2:39:13.4 +18:38.0 H 40+ 32 +16:46.7 M 81 +18:38.0 RC Neulengbach Maria Anzbach 34.7 km/h +
82 2717 TAUCHER Jörg TAUCHER J. 1976 2:39:13.4 +18:38.0 H 40+ 32 +16:46.7 M 81 +18:38.0 Bernhard Kohl Racing Team Bad Waltersdorf 34.7 km/h +
84 2161 GRUBER Rene GRUBER R. 1986 2:39:13.5 +18:38.0 AKH 43 +18:38.0 M 83 +18:38.0 POSH cycling Klein Pöchlarn 34.7 km/h +
85 2451 RIHS Sebastian RIHS S. 1995 2:39:13.9 +18:38.5 AKH 44 +18:38.5 M 84 +18:38.5 Nora Racing Team Brunn am Gebirge 34.7 km/h +
86 2256 KALTENBRUNNER Franz KALTENBRUNNER F. 1980 2:39:14.1 +18:38.7 AKH 45 +18:38.7 M 85 +18:38.7 Purgstall 34.7 km/h +
87 2056 BRENNER Klaus BRENNER K. 1968 2:39:14.2 +18:38.8 H 50+ 7 +13:41.8 M 86 +18:38.8 Radshop Kalteis Mautern Mautern 34.7 km/h +
88 2664 GRUBER Manfred GRUBER M. 1960 2:39:14.2 +18:38.8 H 55+ 1 M 87 +18:38.8 RC ARBÖ St. Pölten Hauer St. Pölten 34.7 km/h +
89 2713 KNOLL Michael KNOLL M. 1976 2:39:14.6 +18:39.2 H 40+ 34 +16:47.9 M 88 +18:39.2 Union RLC Sterngartl Ottensheim 34.7 km/h +
90 2612 WIBMER Daniel WIBMER D. 1992 2:39:16.9 +18:41.5 AKH 46 +18:41.5 M 89 +18:41.5 Skinfit Family Koblach 34.7 km/h +
91 2174 HAGEL Christoph HAGEL C. 1975 2:39:22.5 +18:47.0 H 40+ 35 +16:55.7 M 90 +18:47.0 F.e.lazio ciclismo Furth 34.6 km/h +
92 2704 MITTL Oliver MITTL O. 1972 2:40:03.4 +19:28.0 H 40+ 36 +17:36.6 M 91 +19:28.0 Sulz 34.5 km/h +
93 2544 STOCKINGER Gerhard STOCKINGER G. 1970 2:40:09.0 +19:33.5 H 40+ 37 +17:42.2 M 92 +19:33.5 RC Purgstall Purgstall 34.5 km/h +
94 2665 DEMEL Christoph DEMEL C. 1970 2:40:09.6 +19:34.2 H 40+ 38 +17:42.9 M 93 +19:34.2 Varta Elk Klosterneuburg 34.5 km/h +
95 2647 LEITNER Michael LEITNER M. 1989 2:40:20.6 +19:45.2 AKH 47 +19:45.2 M 94 +19:45.2 Weils gsund is! powered bei RA... Ollern 34.4 km/h +
96 2729 LEODOLTER Ulrich LEODOLTER U. 1967 2:40:22.7 +19:47.3 H 50+ 8 +14:50.3 M 95 +19:47.3 St. Christophen 34.4 km/h +
97 2194 HEIGL Manuel HEIGL M. 1995 2:40:23.9 +19:48.5 AKH 48 +19:48.5 M 96 +19:48.5 ATV Irdning / skinfit® Crew Palfau 34.4 km/h +
98 2058 BRIX Hanspeter BRIX H. 1982 2:40:24.5 +19:49.0 AKH 49 +19:49.0 M 97 +19:49.0 Treppenfüchse Biketeam Hopfgarten 34.4 km/h +
99 2013 AUßERMAYR Ralph AUßERMAYR R. 1963 2:41:44.6 +21:09.2 H 55+ 2 +2:30.4 M 98 +21:09.2 KSV Ennskraft Ternberg 34.1 km/h +
100 2155 GRITSCH Günter GRITSCH G. 1973 2:41:46.1 +21:10.7 H 40+ 39 +19:19.4 M 99 +21:10.7 Wien 34.1 km/h +
101 2723 HÖFLER Walter HÖFLER W. 1959 2:41:46.7 +21:11.3 H 60+ 2 +4:21.5 M 100 +21:11.3 RC Stadt Haag Haag 34.1 km/h +
102 2519 SIMETITS Herbert SIMETITS H. 1958 2:41:46.7 +21:11.3 H 60+ 3 +4:21.5 M 101 +21:11.3 VSW Cycling Team Wien 34.1 km/h +
103 2280 KOLLER Marcel KOLLER M. 1997 2:41:47.6 +21:12.2 AKH 50 +21:12.2 M 102 +21:12.2 Team Alpha - Tischlerei Grömm... Münzkirchen 34.1 km/h +
104 2501 SCHUHMEIER Andreas SCHUHMEIER A. 1963 2:41:48.0 +21:12.6 H 55+ 3 +2:33.7 M 103 +21:12.6 Böheimkirchen 34.1 km/h +
105 2667 KNOLL Philipp KNOLL P. 1977 2:41:48.7 +21:13.3 H 40+ 40 +19:22.0 M 104 +21:13.3 Krems 34.1 km/h +
106 2447 REITTER Michael REITTER M. 1979 2:41:52.7